sensor_id;sensor_type;location;lat;lon;timestamp;temperature;humidity
59128;DHT22;44912;52.754;5.994;2022-07-22T00:00:39;16.10;99.90
59128;DHT22;44912;52.754;5.994;2022-07-22T00:03:04;16.00;99.90
59128;DHT22;44912;52.754;5.994;2022-07-22T00:05:30;16.10;99.90
59128;DHT22;44912;52.754;5.994;2022-07-22T00:07:55;16.10;99.90
59128;DHT22;44912;52.754;5.994;2022-07-22T00:10:21;16.10;99.90
59128;DHT22;44912;52.754;5.994;2022-07-22T00:12:47;16.10;99.90
59128;DHT22;44912;52.754;5.994;2022-07-22T00:15:12;16.10;99.90
59128;DHT22;44912;52.754;5.994;2022-07-22T00:17:40;16.10;99.90
59128;DHT22;44912;52.754;5.994;2022-07-22T00:20:06;16.10;99.90
59128;DHT22;44912;52.754;5.994;2022-07-22T00:22:32;16.10;99.90
59128;DHT22;44912;52.754;5.994;2022-07-22T00:24:58;16.10;99.90
59128;DHT22;44912;52.754;5.994;2022-07-22T00:27:24;16.10;99.90
59128;DHT22;44912;52.754;5.994;2022-07-22T00:29:49;16.10;99.90
59128;DHT22;44912;52.754;5.994;2022-07-22T00:32:15;16.10;99.90
59128;DHT22;44912;52.754;5.994;2022-07-22T00:34:40;16.10;99.90
59128;DHT22;44912;52.754;5.994;2022-07-22T00:37:06;16.10;99.90
59128;DHT22;44912;52.754;5.994;2022-07-22T00:39:32;16.00;99.90
59128;DHT22;44912;52.754;5.994;2022-07-22T00:41:58;16.00;99.90
59128;DHT22;44912;52.754;5.994;2022-07-22T00:44:24;16.10;99.90
59128;DHT22;44912;52.754;5.994;2022-07-22T00:46:49;16.00;99.90
59128;DHT22;44912;52.754;5.994;2022-07-22T00:49:15;16.00;99.90
59128;DHT22;44912;52.754;5.994;2022-07-22T00:51:40;16.00;99.90
59128;DHT22;44912;52.754;5.994;2022-07-22T00:54:07;16.00;99.90
59128;DHT22;44912;52.754;5.994;2022-07-22T00:56:32;16.00;99.90
59128;DHT22;44912;52.754;5.994;2022-07-22T00:59:01;16.00;99.90
59128;DHT22;44912;52.754;5.994;2022-07-22T01:01:28;16.00;99.90
59128;DHT22;44912;52.754;5.994;2022-07-22T01:03:53;16.00;99.90
59128;DHT22;44912;52.754;5.994;2022-07-22T01:06:19;16.00;99.90
59128;DHT22;44912;52.754;5.994;2022-07-22T01:08:45;16.00;99.90
59128;DHT22;44912;52.754;5.994;2022-07-22T01:11:13;16.00;99.90
59128;DHT22;44912;52.754;5.994;2022-07-22T01:13:40;16.00;99.90
59128;DHT22;44912;52.754;5.994;2022-07-22T01:16:07;15.90;99.90
59128;DHT22;44912;52.754;5.994;2022-07-22T01:18:35;16.00;99.90
59128;DHT22;44912;52.754;5.994;2022-07-22T01:21:00;15.90;99.90
59128;DHT22;44912;52.754;5.994;2022-07-22T01:23:26;15.90;99.90
59128;DHT22;44912;52.754;5.994;2022-07-22T01:25:52;16.00;99.90
59128;DHT22;44912;52.754;5.994;2022-07-22T01:28:17;15.90;99.90
59128;DHT22;44912;52.754;5.994;2022-07-22T01:30:43;16.00;99.90
59128;DHT22;44912;52.754;5.994;2022-07-22T01:33:09;16.00;99.90
59128;DHT22;44912;52.754;5.994;2022-07-22T01:35:34;16.00;99.90
59128;DHT22;44912;52.754;5.994;2022-07-22T01:38:00;16.00;99.90
59128;DHT22;44912;52.754;5.994;2022-07-22T01:40:25;16.00;99.90
59128;DHT22;44912;52.754;5.994;2022-07-22T01:42:51;16.00;99.90
59128;DHT22;44912;52.754;5.994;2022-07-22T01:45:17;16.00;99.90
59128;DHT22;44912;52.754;5.994;2022-07-22T01:47:42;16.00;99.90
59128;DHT22;44912;52.754;5.994;2022-07-22T01:50:09;16.00;99.90
59128;DHT22;44912;52.754;5.994;2022-07-22T01:52:36;16.00;99.90
59128;DHT22;44912;52.754;5.994;2022-07-22T01:55:02;16.00;99.90
59128;DHT22;44912;52.754;5.994;2022-07-22T01:57:28;16.00;99.90
59128;DHT22;44912;52.754;5.994;2022-07-22T01:59:53;16.00;99.90
59128;DHT22;44912;52.754;5.994;2022-07-22T02:02:19;16.00;99.90
59128;DHT22;44912;52.754;5.994;2022-07-22T02:04:44;16.00;99.90
59128;DHT22;44912;52.754;5.994;2022-07-22T02:07:10;16.00;99.90
59128;DHT22;44912;52.754;5.994;2022-07-22T02:09:36;16.00;99.90
59128;DHT22;44912;52.754;5.994;2022-07-22T02:12:01;15.90;99.90
59128;DHT22;44912;52.754;5.994;2022-07-22T02:14:27;15.90;99.90
59128;DHT22;44912;52.754;5.994;2022-07-22T02:16:52;15.90;99.90
59128;DHT22;44912;52.754;5.994;2022-07-22T02:19:20;15.90;99.90
59128;DHT22;44912;52.754;5.994;2022-07-22T02:21:46;15.90;99.90
59128;DHT22;44912;52.754;5.994;2022-07-22T02:24:11;16.00;99.90
59128;DHT22;44912;52.754;5.994;2022-07-22T02:26:37;16.00;99.90
59128;DHT22;44912;52.754;5.994;2022-07-22T02:29:02;16.00;99.90
59128;DHT22;44912;52.754;5.994;2022-07-22T02:31:28;16.00;99.90
59128;DHT22;44912;52.754;5.994;2022-07-22T02:33:54;16.00;99.90
59128;DHT22;44912;52.754;5.994;2022-07-22T02:36:19;16.00;99.90
59128;DHT22;44912;52.754;5.994;2022-07-22T02:38:45;16.00;99.90
59128;DHT22;44912;52.754;5.994;2022-07-22T02:41:11;16.00;99.90
59128;DHT22;44912;52.754;5.994;2022-07-22T02:43:36;15.90;99.90
59128;DHT22;44912;52.754;5.994;2022-07-22T02:46:02;15.90;99.90
59128;DHT22;44912;52.754;5.994;2022-07-22T02:48:27;15.90;99.90
59128;DHT22;44912;52.754;5.994;2022-07-22T02:50:53;15.90;99.90
59128;DHT22;44912;52.754;5.994;2022-07-22T02:53:18;15.80;99.90
59128;DHT22;44912;52.754;5.994;2022-07-22T02:55:44;15.80;99.90
59128;DHT22;44912;52.754;5.994;2022-07-22T02:58:10;15.80;99.90
59128;DHT22;44912;52.754;5.994;2022-07-22T03:00:36;15.80;99.90
59128;DHT22;44912;52.754;5.994;2022-07-22T03:03:03;15.80;99.90
59128;DHT22;44912;52.754;5.994;2022-07-22T03:05:29;15.80;99.90
59128;DHT22;44912;52.754;5.994;2022-07-22T03:07:55;15.80;99.90
59128;DHT22;44912;52.754;5.994;2022-07-22T03:10:21;15.80;99.90
59128;DHT22;44912;52.754;5.994;2022-07-22T03:12:46;15.80;99.90
59128;DHT22;44912;52.754;5.994;2022-07-22T03:15:12;15.80;99.90
59128;DHT22;44912;52.754;5.994;2022-07-22T03:17:38;15.90;99.90
59128;DHT22;44912;52.754;5.994;2022-07-22T03:20:05;15.80;99.90
59128;DHT22;44912;52.754;5.994;2022-07-22T03:22:31;15.90;99.90
59128;DHT22;44912;52.754;5.994;2022-07-22T03:24:57;15.90;99.90
59128;DHT22;44912;52.754;5.994;2022-07-22T03:27:22;15.90;99.90
59128;DHT22;44912;52.754;5.994;2022-07-22T03:29:48;15.80;99.90
59128;DHT22;44912;52.754;5.994;2022-07-22T03:32:14;15.90;99.90
59128;DHT22;44912;52.754;5.994;2022-07-22T03:34:39;15.90;99.90
59128;DHT22;44912;52.754;5.994;2022-07-22T03:37:05;15.90;99.90
59128;DHT22;44912;52.754;5.994;2022-07-22T03:39:31;15.90;99.90
59128;DHT22;44912;52.754;5.994;2022-07-22T03:41:56;15.80;99.90
59128;DHT22;44912;52.754;5.994;2022-07-22T03:44:22;15.80;99.90
59128;DHT22;44912;52.754;5.994;2022-07-22T03:46:47;15.80;99.90
59128;DHT22;44912;52.754;5.994;2022-07-22T03:49:13;15.80;99.90
59128;DHT22;44912;52.754;5.994;2022-07-22T03:51:38;15.80;99.90
59128;DHT22;44912;52.754;5.994;2022-07-22T03:54:04;15.80;99.90
59128;DHT22;44912;52.754;5.994;2022-07-22T03:56:30;15.90;99.90
59128;DHT22;44912;52.754;5.994;2022-07-22T03:58:55;15.90;99.90
59128;DHT22;44912;52.754;5.994;2022-07-22T04:01:21;15.90;99.90
59128;DHT22;44912;52.754;5.994;2022-07-22T04:03:46;15.90;99.90
59128;DHT22;44912;52.754;5.994;2022-07-22T04:06:14;15.80;99.90
59128;DHT22;44912;52.754;5.994;2022-07-22T04:08:39;15.80;99.90
59128;DHT22;44912;52.754;5.994;2022-07-22T04:11:05;15.80;99.90
59128;DHT22;44912;52.754;5.994;2022-07-22T04:13:31;15.80;99.90
59128;DHT22;44912;52.754;5.994;2022-07-22T04:15:56;15.80;99.90
59128;DHT22;44912;52.754;5.994;2022-07-22T04:18:22;15.80;99.90
59128;DHT22;44912;52.754;5.994;2022-07-22T04:20:48;15.80;99.90
59128;DHT22;44912;52.754;5.994;2022-07-22T04:23:13;15.80;99.90
59128;DHT22;44912;52.754;5.994;2022-07-22T04:25:39;15.80;99.90
59128;DHT22;44912;52.754;5.994;2022-07-22T04:28:04;15.90;99.90
59128;DHT22;44912;52.754;5.994;2022-07-22T04:30:30;15.80;99.90
59128;DHT22;44912;52.754;5.994;2022-07-22T04:32:56;15.80;99.90
59128;DHT22;44912;52.754;5.994;2022-07-22T04:35:21;15.90;99.90
59128;DHT22;44912;52.754;5.994;2022-07-22T04:37:47;15.90;99.90
59128;DHT22;44912;52.754;5.994;2022-07-22T04:40:12;15.90;99.90
59128;DHT22;44912;52.754;5.994;2022-07-22T04:42:38;15.80;99.90
59128;DHT22;44912;52.754;5.994;2022-07-22T04:45:04;15.90;99.90
59128;DHT22;44912;52.754;5.994;2022-07-22T04:47:30;15.90;99.90
59128;DHT22;44912;52.754;5.994;2022-07-22T04:49:55;15.90;99.90
59128;DHT22;44912;52.754;5.994;2022-07-22T04:52:21;15.90;99.90
59128;DHT22;44912;52.754;5.994;2022-07-22T04:54:48;15.90;99.90
59128;DHT22;44912;52.754;5.994;2022-07-22T04:57:14;15.90;99.90
59128;DHT22;44912;52.754;5.994;2022-07-22T04:59:40;15.90;99.90
59128;DHT22;44912;52.754;5.994;2022-07-22T05:02:05;15.90;99.90
59128;DHT22;44912;52.754;5.994;2022-07-22T05:04:31;15.90;99.90
59128;DHT22;44912;52.754;5.994;2022-07-22T05:06:57;15.90;99.90
59128;DHT22;44912;52.754;5.994;2022-07-22T05:09:22;16.00;99.90
59128;DHT22;44912;52.754;5.994;2022-07-22T05:11:48;16.00;99.90
59128;DHT22;44912;52.754;5.994;2022-07-22T05:14:14;16.00;99.90
59128;DHT22;44912;52.754;5.994;2022-07-22T05:16:39;16.00;99.90
59128;DHT22;44912;52.754;5.994;2022-07-22T05:19:05;16.00;99.90
59128;DHT22;44912;52.754;5.994;2022-07-22T05:21:32;16.10;99.90
59128;DHT22;44912;52.754;5.994;2022-07-22T05:23:58;16.10;99.90
59128;DHT22;44912;52.754;5.994;2022-07-22T05:26:23;16.10;99.90
59128;DHT22;44912;52.754;5.994;2022-07-22T05:28:50;16.10;99.90
59128;DHT22;44912;52.754;5.994;2022-07-22T05:31:16;16.10;99.90
59128;DHT22;44912;52.754;5.994;2022-07-22T05:33:41;16.20;99.90
59128;DHT22;44912;52.754;5.994;2022-07-22T05:36:08;16.20;99.90
59128;DHT22;44912;52.754;5.994;2022-07-22T05:38:35;16.20;99.90
59128;DHT22;44912;52.754;5.994;2022-07-22T05:41:01;16.20;99.90
59128;DHT22;44912;52.754;5.994;2022-07-22T05:43:27;16.20;99.90
59128;DHT22;44912;52.754;5.994;2022-07-22T05:45:53;16.20;99.90
59128;DHT22;44912;52.754;5.994;2022-07-22T05:48:19;16.20;99.90
59128;DHT22;44912;52.754;5.994;2022-07-22T05:50:44;16.20;99.90
59128;DHT22;44912;52.754;5.994;2022-07-22T05:53:10;16.30;99.90
59128;DHT22;44912;52.754;5.994;2022-07-22T05:55:35;16.30;99.90
59128;DHT22;44912;52.754;5.994;2022-07-22T05:58:03;16.30;99.90
59128;DHT22;44912;52.754;5.994;2022-07-22T06:00:29;16.30;99.90
59128;DHT22;44912;52.754;5.994;2022-07-22T06:02:55;16.30;99.90
59128;DHT22;44912;52.754;5.994;2022-07-22T06:05:21;16.30;99.90
59128;DHT22;44912;52.754;5.994;2022-07-22T06:07:49;16.30;99.90
59128;DHT22;44912;52.754;5.994;2022-07-22T06:10:15;16.40;99.90
59128;DHT22;44912;52.754;5.994;2022-07-22T06:12:40;16.40;99.90
59128;DHT22;44912;52.754;5.994;2022-07-22T06:15:06;16.40;99.90
59128;DHT22;44912;52.754;5.994;2022-07-22T06:17:32;16.40;99.90
59128;DHT22;44912;52.754;5.994;2022-07-22T06:19:57;16.40;99.90
59128;DHT22;44912;52.754;5.994;2022-07-22T06:22:23;16.40;99.90
59128;DHT22;44912;52.754;5.994;2022-07-22T06:24:48;16.40;99.90
59128;DHT22;44912;52.754;5.994;2022-07-22T06:27:14;16.50;99.90
59128;DHT22;44912;52.754;5.994;2022-07-22T06:29:40;16.50;99.90
59128;DHT22;44912;52.754;5.994;2022-07-22T06:32:06;16.50;99.90
59128;DHT22;44912;52.754;5.994;2022-07-22T06:34:32;16.50;99.90
59128;DHT22;44912;52.754;5.994;2022-07-22T06:36:58;16.50;99.90
59128;DHT22;44912;52.754;5.994;2022-07-22T06:39:23;16.50;99.90
59128;DHT22;44912;52.754;5.994;2022-07-22T06:41:49;16.50;99.90
59128;DHT22;44912;52.754;5.994;2022-07-22T06:44:15;16.50;99.90
59128;DHT22;44912;52.754;5.994;2022-07-22T06:46:40;16.60;99.90
59128;DHT22;44912;52.754;5.994;2022-07-22T06:49:06;16.60;99.90
59128;DHT22;44912;52.754;5.994;2022-07-22T06:51:32;16.60;99.90
59128;DHT22;44912;52.754;5.994;2022-07-22T06:53:59;16.70;99.90
59128;DHT22;44912;52.754;5.994;2022-07-22T06:56:24;16.80;99.90
59128;DHT22;44912;52.754;5.994;2022-07-22T06:58:50;16.80;99.90
59128;DHT22;44912;52.754;5.994;2022-07-22T07:01:15;16.80;99.90
59128;DHT22;44912;52.754;5.994;2022-07-22T07:03:41;16.90;99.90
59128;DHT22;44912;52.754;5.994;2022-07-22T07:06:08;16.90;99.90
59128;DHT22;44912;52.754;5.994;2022-07-22T07:08:37;17.00;99.90
59128;DHT22;44912;52.754;5.994;2022-07-22T07:11:03;17.00;99.90
59128;DHT22;44912;52.754;5.994;2022-07-22T07:13:28;17.10;99.90
59128;DHT22;44912;52.754;5.994;2022-07-22T07:15:55;17.20;99.90
59128;DHT22;44912;52.754;5.994;2022-07-22T07:18:20;17.20;99.90
59128;DHT22;44912;52.754;5.994;2022-07-22T07:20:46;17.10;99.90
59128;DHT22;44912;52.754;5.994;2022-07-22T07:23:11;17.20;99.90
59128;DHT22;44912;52.754;5.994;2022-07-22T07:25:40;17.10;99.90
59128;DHT22;44912;52.754;5.994;2022-07-22T07:28:06;17.20;99.90
59128;DHT22;44912;52.754;5.994;2022-07-22T07:30:34;17.20;99.90
59128;DHT22;44912;52.754;5.994;2022-07-22T07:33:00;17.20;99.90
59128;DHT22;44912;52.754;5.994;2022-07-22T07:35:26;17.20;99.90
59128;DHT22;44912;52.754;5.994;2022-07-22T07:37:52;17.30;99.90
59128;DHT22;44912;52.754;5.994;2022-07-22T07:40:17;17.30;99.90
59128;DHT22;44912;52.754;5.994;2022-07-22T07:42:43;17.30;99.90
59128;DHT22;44912;52.754;5.994;2022-07-22T07:45:09;17.30;99.90
59128;DHT22;44912;52.754;5.994;2022-07-22T07:47:34;17.40;99.90
59128;DHT22;44912;52.754;5.994;2022-07-22T07:50:00;17.40;99.90
59128;DHT22;44912;52.754;5.994;2022-07-22T07:52:27;17.40;99.90
59128;DHT22;44912;52.754;5.994;2022-07-22T07:54:53;17.30;99.90
59128;DHT22;44912;52.754;5.994;2022-07-22T07:57:21;17.30;99.90
59128;DHT22;44912;52.754;5.994;2022-07-22T07:59:46;17.20;99.90
59128;DHT22;44912;52.754;5.994;2022-07-22T08:02:12;17.30;99.90
59128;DHT22;44912;52.754;5.994;2022-07-22T08:04:37;17.30;99.90
59128;DHT22;44912;52.754;5.994;2022-07-22T08:07:04;17.30;99.90
59128;DHT22;44912;52.754;5.994;2022-07-22T08:09:30;17.30;99.90
59128;DHT22;44912;52.754;5.994;2022-07-22T08:11:56;17.30;99.90
59128;DHT22;44912;52.754;5.994;2022-07-22T08:14:22;17.40;99.90
59128;DHT22;44912;52.754;5.994;2022-07-22T08:16:48;17.40;99.90
59128;DHT22;44912;52.754;5.994;2022-07-22T08:19:13;17.40;99.90
59128;DHT22;44912;52.754;5.994;2022-07-22T08:21:39;17.50;99.90
59128;DHT22;44912;52.754;5.994;2022-07-22T08:24:08;17.50;99.90
59128;DHT22;44912;52.754;5.994;2022-07-22T08:26:34;17.50;99.90
59128;DHT22;44912;52.754;5.994;2022-07-22T08:29:00;17.60;99.90
59128;DHT22;44912;52.754;5.994;2022-07-22T08:31:27;17.50;99.90
59128;DHT22;44912;52.754;5.994;2022-07-22T08:33:53;17.50;99.90
59128;DHT22;44912;52.754;5.994;2022-07-22T08:36:19;17.60;99.90
59128;DHT22;44912;52.754;5.994;2022-07-22T08:38:44;17.60;99.90
59128;DHT22;44912;52.754;5.994;2022-07-22T08:41:10;17.60;99.90
59128;DHT22;44912;52.754;5.994;2022-07-22T08:43:38;17.50;99.90
59128;DHT22;44912;52.754;5.994;2022-07-22T08:46:07;17.60;99.90
59128;DHT22;44912;52.754;5.994;2022-07-22T08:48:32;17.70;99.90
59128;DHT22;44912;52.754;5.994;2022-07-22T08:50:58;17.80;99.90
59128;DHT22;44912;52.754;5.994;2022-07-22T08:53:24;17.80;99.90
59128;DHT22;44912;52.754;5.994;2022-07-22T08:55:49;17.80;99.90
59128;DHT22;44912;52.754;5.994;2022-07-22T08:58:15;17.90;99.90
59128;DHT22;44912;52.754;5.994;2022-07-22T09:00:43;17.90;99.90
59128;DHT22;44912;52.754;5.994;2022-07-22T09:03:22;17.80;99.90
59128;DHT22;44912;52.754;5.994;2022-07-22T09:05:50;17.80;99.90
59128;DHT22;44912;52.754;5.994;2022-07-22T09:08:17;17.80;99.90
59128;DHT22;44912;52.754;5.994;2022-07-22T09:10:43;17.90;99.90
59128;DHT22;44912;52.754;5.994;2022-07-22T09:13:10;17.90;99.90
59128;DHT22;44912;52.754;5.994;2022-07-22T09:15:46;17.90;99.90
59128;DHT22;44912;52.754;5.994;2022-07-22T09:18:12;17.90;99.90
59128;DHT22;44912;52.754;5.994;2022-07-22T09:20:38;17.80;99.90
59128;DHT22;44912;52.754;5.994;2022-07-22T09:23:18;17.80;99.90
59128;DHT22;44912;52.754;5.994;2022-07-22T09:25:46;17.90;99.90
59128;DHT22;44912;52.754;5.994;2022-07-22T09:28:15;17.90;99.90
59128;DHT22;44912;52.754;5.994;2022-07-22T09:30:52;17.90;99.90
59128;DHT22;44912;52.754;5.994;2022-07-22T09:33:19;17.90;99.90
59128;DHT22;44912;52.754;5.994;2022-07-22T09:35:48;17.90;99.90
59128;DHT22;44912;52.754;5.994;2022-07-22T09:38:15;17.90;99.90
59128;DHT22;44912;52.754;5.994;2022-07-22T09:40:45;17.90;99.90
59128;DHT22;44912;52.754;5.994;2022-07-22T09:43:14;18.00;99.90
59128;DHT22;44912;52.754;5.994;2022-07-22T09:45:52;18.10;99.90
59128;DHT22;44912;52.754;5.994;2022-07-22T09:48:25;18.20;99.90
59128;DHT22;44912;52.754;5.994;2022-07-22T09:50:53;18.30;99.90
59128;DHT22;44912;52.754;5.994;2022-07-22T09:53:20;18.40;99.90
59128;DHT22;44912;52.754;5.994;2022-07-22T09:55:47;18.40;99.90
59128;DHT22;44912;52.754;5.994;2022-07-22T09:58:13;18.40;99.90
59128;DHT22;44912;52.754;5.994;2022-07-22T10:00:40;18.40;99.90
59128;DHT22;44912;52.754;5.994;2022-07-22T10:03:08;18.30;99.90
59128;DHT22;44912;52.754;5.994;2022-07-22T10:05:41;18.30;99.90
59128;DHT22;44912;52.754;5.994;2022-07-22T10:08:08;18.30;99.90
59128;DHT22;44912;52.754;5.994;2022-07-22T10:10:35;18.20;99.90
59128;DHT22;44912;52.754;5.994;2022-07-22T10:13:03;18.20;99.90
59128;DHT22;44912;52.754;5.994;2022-07-22T10:15:29;18.20;99.90
59128;DHT22;44912;52.754;5.994;2022-07-22T10:18:00;18.20;99.90
59128;DHT22;44912;52.754;5.994;2022-07-22T10:20:29;18.10;99.90
59128;DHT22;44912;52.754;5.994;2022-07-22T10:22:56;18.20;99.90
59128;DHT22;44912;52.754;5.994;2022-07-22T10:25:24;18.20;99.90
59128;DHT22;44912;52.754;5.994;2022-07-22T10:27:54;18.20;99.90
59128;DHT22;44912;52.754;5.994;2022-07-22T10:30:25;18.20;99.90
59128;DHT22;44912;52.754;5.994;2022-07-22T10:33:21;18.30;99.90
59128;DHT22;44912;52.754;5.994;2022-07-22T10:36:06;18.40;99.90
59128;DHT22;44912;52.754;5.994;2022-07-22T10:38:33;18.60;99.90
59128;DHT22;44912;52.754;5.994;2022-07-22T10:41:04;18.70;99.90
59128;DHT22;44912;52.754;5.994;2022-07-22T10:43:51;18.80;99.90
59128;DHT22;44912;52.754;5.994;2022-07-22T10:46:17;18.90;99.90
59128;DHT22;44912;52.754;5.994;2022-07-22T10:51:13;18.90;99.90
59128;DHT22;44912;52.754;5.994;2022-07-22T10:53:46;18.90;99.90
59128;DHT22;44912;52.754;5.994;2022-07-22T10:56:31;18.90;99.90
59128;DHT22;44912;52.754;5.994;2022-07-22T10:59:10;18.80;99.90
59128;DHT22;44912;52.754;5.994;2022-07-22T11:01:38;18.80;99.90
59128;DHT22;44912;52.754;5.994;2022-07-22T11:06:39;18.90;99.90
59128;DHT22;44912;52.754;5.994;2022-07-22T11:09:10;19.10;99.90
59128;DHT22;44912;52.754;5.994;2022-07-22T11:11:44;19.10;99.90
59128;DHT22;44912;52.754;5.994;2022-07-22T11:14:11;18.90;99.90
59128;DHT22;44912;52.754;5.994;2022-07-22T11:16:37;18.80;99.90
59128;DHT22;44912;52.754;5.994;2022-07-22T11:19:02;18.60;99.90
59128;DHT22;44912;52.754;5.994;2022-07-22T11:21:30;18.60;99.90
59128;DHT22;44912;52.754;5.994;2022-07-22T11:23:59;18.60;99.90
59128;DHT22;44912;52.754;5.994;2022-07-22T11:26:39;18.70;99.90
59128;DHT22;44912;52.754;5.994;2022-07-22T11:29:06;18.60;99.90
59128;DHT22;44912;52.754;5.994;2022-07-22T11:31:31;18.50;99.90
59128;DHT22;44912;52.754;5.994;2022-07-22T11:34:10;18.40;99.90
59128;DHT22;44912;52.754;5.994;2022-07-22T11:36:41;18.30;99.90
59128;DHT22;44912;52.754;5.994;2022-07-22T11:39:08;18.20;99.90
59128;DHT22;44912;52.754;5.994;2022-07-22T11:41:34;18.20;99.90
59128;DHT22;44912;52.754;5.994;2022-07-22T11:44:00;18.20;99.90
59128;DHT22;44912;52.754;5.994;2022-07-22T11:46:27;18.10;99.90
59128;DHT22;44912;52.754;5.994;2022-07-22T11:48:56;18.10;99.90
59128;DHT22;44912;52.754;5.994;2022-07-22T11:51:28;18.00;99.90
59128;DHT22;44912;52.754;5.994;2022-07-22T11:53:55;18.00;99.90
59128;DHT22;44912;52.754;5.994;2022-07-22T11:56:20;18.00;99.90
59128;DHT22;44912;52.754;5.994;2022-07-22T11:58:48;18.00;99.90
59128;DHT22;44912;52.754;5.994;2022-07-22T12:01:25;18.00;99.90
59128;DHT22;44912;52.754;5.994;2022-07-22T12:03:59;18.00;99.90
59128;DHT22;44912;52.754;5.994;2022-07-22T12:06:29;18.10;99.90
59128;DHT22;44912;52.754;5.994;2022-07-22T12:11:28;18.30;99.90
59128;DHT22;44912;52.754;5.994;2022-07-22T12:13:54;18.40;99.90
59128;DHT22;44912;52.754;5.994;2022-07-22T12:18:59;18.80;99.90
59128;DHT22;44912;52.754;5.994;2022-07-22T12:21:27;18.90;99.90
59128;DHT22;44912;52.754;5.994;2022-07-22T12:23:55;19.00;99.90
59128;DHT22;44912;52.754;5.994;2022-07-22T12:26:44;19.00;99.90
59128;DHT22;44912;52.754;5.994;2022-07-22T12:31:59;18.90;99.90
59128;DHT22;44912;52.754;5.994;2022-07-22T12:36:55;18.70;99.90
59128;DHT22;44912;52.754;5.994;2022-07-22T12:39:21;18.60;99.90
59128;DHT22;44912;52.754;5.994;2022-07-22T12:41:50;18.50;99.90
59128;DHT22;44912;52.754;5.994;2022-07-22T12:44:26;18.50;99.90
59128;DHT22;44912;52.754;5.994;2022-07-22T12:46:55;18.40;99.90
59128;DHT22;44912;52.754;5.994;2022-07-22T12:49:25;18.30;99.90
59128;DHT22;44912;52.754;5.994;2022-07-22T12:52:07;18.30;99.90
59128;DHT22;44912;52.754;5.994;2022-07-22T12:54:34;18.20;99.90
59128;DHT22;44912;52.754;5.994;2022-07-22T12:57:00;18.10;99.90
59128;DHT22;44912;52.754;5.994;2022-07-22T12:59:28;18.20;99.90
59128;DHT22;44912;52.754;5.994;2022-07-22T13:01:54;18.10;99.90
59128;DHT22;44912;52.754;5.994;2022-07-22T13:04:19;18.20;99.90
59128;DHT22;44912;52.754;5.994;2022-07-22T13:06:45;18.20;99.90
59128;DHT22;44912;52.754;5.994;2022-07-22T13:09:10;18.10;99.90
59128;DHT22;44912;52.754;5.994;2022-07-22T13:11:36;18.10;99.90
59128;DHT22;44912;52.754;5.994;2022-07-22T13:14:05;18.00;99.90
59128;DHT22;44912;52.754;5.994;2022-07-22T13:16:32;18.00;99.90
59128;DHT22;44912;52.754;5.994;2022-07-22T13:18:58;18.00;99.90
59128;DHT22;44912;52.754;5.994;2022-07-22T13:21:24;18.00;99.90
59128;DHT22;44912;52.754;5.994;2022-07-22T13:23:52;18.00;99.90
59128;DHT22;44912;52.754;5.994;2022-07-22T13:26:17;18.10;99.90
59128;DHT22;44912;52.754;5.994;2022-07-22T13:28:43;18.10;99.90
59128;DHT22;44912;52.754;5.994;2022-07-22T13:31:09;18.20;99.90
59128;DHT22;44912;52.754;5.994;2022-07-22T13:33:35;18.20;99.90
59128;DHT22;44912;52.754;5.994;2022-07-22T13:36:01;18.30;99.90
59128;DHT22;44912;52.754;5.994;2022-07-22T13:38:29;18.20;99.90
59128;DHT22;44912;52.754;5.994;2022-07-22T13:40:55;18.20;99.90
59128;DHT22;44912;52.754;5.994;2022-07-22T13:43:22;18.30;99.90
59128;DHT22;44912;52.754;5.994;2022-07-22T13:45:49;18.20;99.90
59128;DHT22;44912;52.754;5.994;2022-07-22T13:48:17;18.20;99.90
59128;DHT22;44912;52.754;5.994;2022-07-22T13:50:44;18.30;99.90
59128;DHT22;44912;52.754;5.994;2022-07-22T13:53:10;18.40;99.90
59128;DHT22;44912;52.754;5.994;2022-07-22T13:55:40;18.70;99.90
59128;DHT22;44912;52.754;5.994;2022-07-22T13:58:06;18.70;99.90
59128;DHT22;44912;52.754;5.994;2022-07-22T14:00:33;18.70;99.90
59128;DHT22;44912;52.754;5.994;2022-07-22T14:02:58;18.70;99.90
59128;DHT22;44912;52.754;5.994;2022-07-22T14:05:26;18.70;99.90
59128;DHT22;44912;52.754;5.994;2022-07-22T14:07:52;18.70;99.90
59128;DHT22;44912;52.754;5.994;2022-07-22T14:10:17;18.70;99.90
59128;DHT22;44912;52.754;5.994;2022-07-22T14:12:43;18.70;99.90
59128;DHT22;44912;52.754;5.994;2022-07-22T14:15:10;18.60;99.90
59128;DHT22;44912;52.754;5.994;2022-07-22T14:17:35;18.60;99.90
59128;DHT22;44912;52.754;5.994;2022-07-22T14:20:02;18.60;99.90
59128;DHT22;44912;52.754;5.994;2022-07-22T14:22:29;18.60;99.90
59128;DHT22;44912;52.754;5.994;2022-07-22T14:24:56;18.60;99.90
59128;DHT22;44912;52.754;5.994;2022-07-22T14:27:21;18.70;99.90
59128;DHT22;44912;52.754;5.994;2022-07-22T14:29:47;18.70;99.90
59128;DHT22;44912;52.754;5.994;2022-07-22T14:32:15;18.80;99.90
59128;DHT22;44912;52.754;5.994;2022-07-22T14:34:40;18.80;99.90
59128;DHT22;44912;52.754;5.994;2022-07-22T14:37:06;18.80;99.90
59128;DHT22;44912;52.754;5.994;2022-07-22T14:39:32;19.00;99.90
59128;DHT22;44912;52.754;5.994;2022-07-22T14:41:58;19.00;99.90
59128;DHT22;44912;52.754;5.994;2022-07-22T14:44:24;19.00;99.90
59128;DHT22;44912;52.754;5.994;2022-07-22T14:46:49;19.00;99.90
59128;DHT22;44912;52.754;5.994;2022-07-22T14:49:15;19.00;99.90
59128;DHT22;44912;52.754;5.994;2022-07-22T14:51:41;19.00;99.90
59128;DHT22;44912;52.754;5.994;2022-07-22T14:54:07;19.00;99.90
59128;DHT22;44912;52.754;5.994;2022-07-22T14:56:34;18.90;99.90
59128;DHT22;44912;52.754;5.994;2022-07-22T14:59:00;18.90;99.90
59128;DHT22;44912;52.754;5.994;2022-07-22T15:01:27;18.80;99.90
59128;DHT22;44912;52.754;5.994;2022-07-22T15:03:53;18.70;99.90
59128;DHT22;44912;52.754;5.994;2022-07-22T15:06:18;18.70;99.90
59128;DHT22;44912;52.754;5.994;2022-07-22T15:08:46;18.70;99.90
59128;DHT22;44912;52.754;5.994;2022-07-22T15:11:14;18.60;99.90
59128;DHT22;44912;52.754;5.994;2022-07-22T15:13:39;18.70;99.90
59128;DHT22;44912;52.754;5.994;2022-07-22T15:16:05;18.60;99.90
59128;DHT22;44912;52.754;5.994;2022-07-22T15:18:31;18.70;99.90
59128;DHT22;44912;52.754;5.994;2022-07-22T15:20:56;18.70;99.90
59128;DHT22;44912;52.754;5.994;2022-07-22T15:23:26;18.80;99.90
59128;DHT22;44912;52.754;5.994;2022-07-22T15:25:54;18.90;99.90
59128;DHT22;44912;52.754;5.994;2022-07-22T15:28:19;19.10;99.90
59128;DHT22;44912;52.754;5.994;2022-07-22T15:30:45;19.20;99.90
59128;DHT22;44912;52.754;5.994;2022-07-22T15:33:10;19.20;99.90
59128;DHT22;44912;52.754;5.994;2022-07-22T15:35:38;19.30;99.90
59128;DHT22;44912;52.754;5.994;2022-07-22T15:38:04;19.30;99.90
59128;DHT22;44912;52.754;5.994;2022-07-22T15:40:29;19.40;99.90
59128;DHT22;44912;52.754;5.994;2022-07-22T15:42:55;19.40;99.90